sensor_id;sensor_type;location;lat;lon;timestamp;pressure;altitude;pressure_sealevel;temperature;humidity
84308;BME280;74486;52.070;5.128;2024-02-04T00:00:07;102432.75;;;9.86;100.00
84308;BME280;74486;52.070;5.128;2024-02-04T00:02:33;102431.06;;;9.86;100.00
84308;BME280;74486;52.070;5.128;2024-02-04T00:04:58;102434.69;;;9.88;100.00
84308;BME280;74486;52.070;5.128;2024-02-04T00:07:24;102436.50;;;9.89;100.00
84308;BME280;74486;52.070;5.128;2024-02-04T00:09:49;102444.47;;;9.91;100.00
84308;BME280;74486;52.070;5.128;2024-02-04T00:12:16;102434.94;;;9.91;100.00
84308;BME280;74486;52.070;5.128;2024-02-04T00:14:41;102437.19;;;9.98;100.00
84308;BME280;74486;52.070;5.128;2024-02-04T00:17:07;102440.84;;;10.00;100.00
84308;BME280;74486;52.070;5.128;2024-02-04T00:19:32;102429.03;;;10.06;100.00
84308;BME280;74486;52.070;5.128;2024-02-04T00:21:58;102431.72;;;10.07;100.00
84308;BME280;74486;52.070;5.128;2024-02-04T00:24:23;102422.69;;;10.02;100.00
84308;BME280;74486;52.070;5.128;2024-02-04T00:26:49;102432.44;;;10.04;100.00
84308;BME280;74486;52.070;5.128;2024-02-04T00:29:16;102430.72;;;10.05;100.00
84308;BME280;74486;52.070;5.128;2024-02-04T00:31:41;102432.56;;;10.06;100.00
84308;BME280;74486;52.070;5.128;2024-02-04T00:34:06;102428.91;;;10.04;100.00
84308;BME280;74486;52.070;5.128;2024-02-04T00:36:32;102437.66;;;10.04;100.00
84308;BME280;74486;52.070;5.128;2024-02-04T00:38:57;102435.97;;;10.05;100.00
84308;BME280;74486;52.070;5.128;2024-02-04T00:41:23;102433.34;;;10.05;100.00
84308;BME280;74486;52.070;5.128;2024-02-04T00:43:49;102432.31;;;10.03;100.00
84308;BME280;74486;52.070;5.128;2024-02-04T00:46:15;102437.53;;;10.03;100.00
84308;BME280;74486;52.070;5.128;2024-02-04T00:48:41;102433.91;;;10.01;100.00
84308;BME280;74486;52.070;5.128;2024-02-04T00:51:06;102420.72;;;9.99;100.00
84308;BME280;74486;52.070;5.128;2024-02-04T00:53:32;102433.66;;;9.98;100.00
84308;BME280;74486;52.070;5.128;2024-02-04T00:55:57;102422.22;;;9.96;100.00
84308;BME280;74486;52.070;5.128;2024-02-04T00:58:23;102417.91;;;9.96;100.00
84308;BME280;74486;52.070;5.128;2024-02-04T01:00:48;102415.28;;;9.96;100.00
84308;BME280;74486;52.070;5.128;2024-02-04T01:03:15;102404.38;;;9.90;100.00
84308;BME280;74486;52.070;5.128;2024-02-04T01:05:40;102403.34;;;9.88;100.00
84308;BME280;74486;52.070;5.128;2024-02-04T01:08:06;102401.41;;;9.86;100.00
84308;BME280;74486;52.070;5.128;2024-02-04T01:10:31;102413.78;;;9.88;100.00
84308;BME280;74486;52.070;5.128;2024-02-04T01:12:57;102407.66;;;9.88;100.00
84308;BME280;74486;52.070;5.128;2024-02-04T01:15:22;102403.13;;;9.85;100.00
84308;BME280;74486;52.070;5.128;2024-02-04T01:17:48;102397.91;;;9.85;100.00
84308;BME280;74486;52.070;5.128;2024-02-04T01:20:14;102396.63;;;9.80;100.00
84308;BME280;74486;52.070;5.128;2024-02-04T01:22:40;102399.13;;;9.79;100.00
84308;BME280;74486;52.070;5.128;2024-02-04T01:25:06;102403.44;;;9.78;100.00
84308;BME280;74486;52.070;5.128;2024-02-04T01:27:32;102407.88;;;9.79;100.00
84308;BME280;74486;52.070;5.128;2024-02-04T01:29:57;102399.47;;;9.83;100.00
84308;BME280;74486;52.070;5.128;2024-02-04T01:32:23;102399.38;;;9.82;100.00
84308;BME280;74486;52.070;5.128;2024-02-04T01:34:48;102404.47;;;9.80;100.00
84308;BME280;74486;52.070;5.128;2024-02-04T01:37:15;102397.22;;;9.76;100.00
84308;BME280;74486;52.070;5.128;2024-02-04T01:39:40;102406.75;;;9.76;100.00
84308;BME280;74486;52.070;5.128;2024-02-04T01:42:06;102403.56;;;9.80;100.00
84308;BME280;74486;52.070;5.128;2024-02-04T01:44:31;102404.13;;;9.76;100.00
84308;BME280;74486;52.070;5.128;2024-02-04T01:46:57;102402.44;;;9.76;100.00
84308;BME280;74486;52.070;5.128;2024-02-04T01:49:22;102407.53;;;9.75;100.00
84308;BME280;74486;52.070;5.128;2024-02-04T01:51:47;102407.09;;;9.80;100.00
84308;BME280;74486;52.070;5.128;2024-02-04T01:54:14;102417.53;;;9.80;100.00
84308;BME280;74486;52.070;5.128;2024-02-04T01:56:41;102420.72;;;9.76;100.00
84308;BME280;74486;52.070;5.128;2024-02-04T01:59:07;102421.63;;;9.77;100.00
84308;BME280;74486;52.070;5.128;2024-02-04T02:01:34;102425.94;;;9.76;100.00
84308;BME280;74486;52.070;5.128;2024-02-04T02:04:00;102431.81;;;9.74;100.00
84308;BME280;74486;52.070;5.128;2024-02-04T02:06:25;102424.81;;;9.73;100.00
84308;BME280;74486;52.070;5.128;2024-02-04T02:08:52;102422.06;;;9.71;100.00
84308;BME280;74486;52.070;5.128;2024-02-04T02:11:25;102417.97;;;9.75;100.00
84308;BME280;74486;52.070;5.128;2024-02-04T02:13:57;102423.06;;;9.73;100.00
84308;BME280;74486;52.070;5.128;2024-02-04T02:16:26;102420.38;;;9.72;100.00
84308;BME280;74486;52.070;5.128;2024-02-04T02:18:55;102413.09;;;9.68;100.00
84308;BME280;74486;52.070;5.128;2024-02-04T02:21:34;102413.31;;;9.71;100.00
84308;BME280;74486;52.070;5.128;2024-02-04T02:24:10;102404.72;;;9.72;100.00
84308;BME280;74486;52.070;5.128;2024-02-04T02:26:38;102409.00;;;9.71;100.00
84308;BME280;74486;52.070;5.128;2024-02-04T02:29:04;102406.28;;;9.70;100.00
84308;BME280;74486;52.070;5.128;2024-02-04T02:31:29;102417.28;;;9.66;100.00
84308;BME280;74486;52.070;5.128;2024-02-04T02:33:55;102414.69;;;9.66;100.00
84308;BME280;74486;52.070;5.128;2024-02-04T02:36:21;102412.75;;;9.63;100.00
84308;BME280;74486;52.070;5.128;2024-02-04T02:38:53;102411.25;;;9.55;100.00
84308;BME280;74486;52.070;5.128;2024-02-04T02:41:22;102403.41;;;9.55;100.00
84308;BME280;74486;52.070;5.128;2024-02-04T02:43:51;102407.06;;;9.57;100.00
84308;BME280;74486;52.070;5.128;2024-02-04T02:46:18;102404.19;;;9.54;100.00
84308;BME280;74486;52.070;5.128;2024-02-04T02:48:43;102405.47;;;9.47;100.00
84308;BME280;74486;52.070;5.128;2024-02-04T02:51:09;102407.94;;;9.46;100.00
84308;BME280;74486;52.070;5.128;2024-02-04T02:53:35;102411.03;;;9.52;100.00
84308;BME280;74486;52.070;5.128;2024-02-04T02:56:00;102414.19;;;9.48;100.00
84308;BME280;74486;52.070;5.128;2024-02-04T02:58:25;102417.47;;;9.45;100.00
84308;BME280;74486;52.070;5.128;2024-02-04T03:00:52;102413.16;;;9.46;100.00
84308;BME280;74486;52.070;5.128;2024-02-04T03:03:18;102420.84;;;9.44;100.00
84308;BME280;74486;52.070;5.128;2024-02-04T03:05:43;102424.16;;;9.42;100.00
84308;BME280;74486;52.070;5.128;2024-02-04T03:08:08;102398.28;;;9.45;100.00
84308;BME280;74486;52.070;5.128;2024-02-04T03:10:34;102409.41;;;9.42;100.00
84308;BME280;74486;52.070;5.128;2024-02-04T03:13:00;102408.28;;;9.39;100.00
84308;BME280;74486;52.070;5.128;2024-02-04T03:15:25;102409.41;;;9.42;100.00
84308;BME280;74486;52.070;5.128;2024-02-04T03:17:52;102409.28;;;9.41;100.00
84308;BME280;74486;52.070;5.128;2024-02-04T03:20:17;102399.97;;;9.33;100.00
84308;BME280;74486;52.070;5.128;2024-02-04T03:22:43;102405.53;;;9.37;100.00
84308;BME280;74486;52.070;5.128;2024-02-04T03:25:08;102394.97;;;9.36;100.00
84308;BME280;74486;52.070;5.128;2024-02-04T03:27:34;102398.72;;;9.39;100.00
84308;BME280;74486;52.070;5.128;2024-02-04T03:29:59;102404.63;;;9.37;100.00
84308;BME280;74486;52.070;5.128;2024-02-04T03:32:25;102396.66;;;9.35;100.00
84308;BME280;74486;52.070;5.128;2024-02-04T03:34:51;102392.38;;;9.36;100.00
84308;BME280;74486;52.070;5.128;2024-02-04T03:37:17;102388.63;;;9.32;100.00
84308;BME280;74486;52.070;5.128;2024-02-04T03:39:42;102387.16;;;9.36;100.00
84308;BME280;74486;52.070;5.128;2024-02-04T03:42:08;102382.91;;;9.26;100.00
84308;BME280;74486;52.070;5.128;2024-02-04T03:44:33;102393.22;;;9.25;100.00
84308;BME280;74486;52.070;5.128;2024-02-04T03:46:59;102387.56;;;9.30;100.00
84308;BME280;74486;52.070;5.128;2024-02-04T03:49:24;102394.28;;;9.27;100.00
84308;BME280;74486;52.070;5.128;2024-02-04T03:51:51;102412.66;;;9.28;100.00
84308;BME280;74486;52.070;5.128;2024-02-04T03:54:16;102418.66;;;9.27;100.00
84308;BME280;74486;52.070;5.128;2024-02-04T03:56:42;102424.94;;;9.29;100.00
84308;BME280;74486;52.070;5.128;2024-02-04T03:59:08;102416.19;;;9.29;100.00
84308;BME280;74486;52.070;5.128;2024-02-04T04:01:33;102405.41;;;9.24;100.00
84308;BME280;74486;52.070;5.128;2024-02-04T04:03:58;102407.88;;;9.23;100.00
84308;BME280;74486;52.070;5.128;2024-02-04T04:06:24;102408.19;;;9.15;100.00
84308;BME280;74486;52.070;5.128;2024-02-04T04:08:51;102397.28;;;9.09;100.00
84308;BME280;74486;52.070;5.128;2024-02-04T04:11:16;102399.41;;;9.03;100.00
84308;BME280;74486;52.070;5.128;2024-02-04T04:13:42;102387.03;;;9.01;100.00
84308;BME280;74486;52.070;5.128;2024-02-04T04:16:07;102390.09;;;8.95;100.00
84308;BME280;74486;52.070;5.128;2024-02-04T04:18:32;102386.56;;;8.95;100.00
84308;BME280;74486;52.070;5.128;2024-02-04T04:20:58;102377.56;;;8.91;100.00
84308;BME280;74486;52.070;5.128;2024-02-04T04:23:23;102378.13;;;8.87;100.00
84308;BME280;74486;52.070;5.128;2024-02-04T04:25:50;102381.00;;;8.90;100.00
84308;BME280;74486;52.070;5.128;2024-02-04T04:28:16;102381.09;;;8.92;100.00
84308;BME280;74486;52.070;5.128;2024-02-04T04:30:41;102381.53;;;8.86;100.00
84308;BME280;74486;52.070;5.128;2024-02-04T04:33:07;102374.75;;;8.88;100.00
84308;BME280;74486;52.070;5.128;2024-02-04T04:35:32;102362.63;;;8.89;100.00
84308;BME280;74486;52.070;5.128;2024-02-04T04:37:57;102349.44;;;8.87;100.00
84308;BME280;74486;52.070;5.128;2024-02-04T04:40:23;102365.03;;;8.97;100.00
84308;BME280;74486;52.070;5.128;2024-02-04T04:42:50;102373.63;;;8.96;100.00
84308;BME280;74486;52.070;5.128;2024-02-04T04:45:15;102365.03;;;8.97;100.00
84308;BME280;74486;52.070;5.128;2024-02-04T04:47:41;102361.41;;;8.95;100.00
84308;BME280;74486;52.070;5.128;2024-02-04T04:50:07;102347.97;;;8.91;100.00
84308;BME280;74486;52.070;5.128;2024-02-04T04:52:32;102348.66;;;8.88;100.00
84308;BME280;74486;52.070;5.128;2024-02-04T04:54:58;102345.16;;;8.88;100.00
84308;BME280;74486;52.070;5.128;2024-02-04T04:57:23;102351.97;;;8.97;100.00
84308;BME280;74486;52.070;5.128;2024-02-04T04:59:50;102346.78;;;8.97;100.00
84308;BME280;74486;52.070;5.128;2024-02-04T05:02:16;102341.34;;;8.94;100.00
84308;BME280;74486;52.070;5.128;2024-02-04T05:04:42;102346.91;;;8.99;100.00
84308;BME280;74486;52.070;5.128;2024-02-04T05:07:07;102347.13;;;9.02;100.00
84308;BME280;74486;52.070;5.128;2024-02-04T05:09:33;102344.94;;;8.96;100.00
84308;BME280;74486;52.070;5.128;2024-02-04T05:11:58;102338.16;;;8.98;100.00
84308;BME280;74486;52.070;5.128;2024-02-04T05:14:24;102337.25;;;8.98;100.00
84308;BME280;74486;52.070;5.128;2024-02-04T05:16:50;102328.50;;;8.97;100.00
84308;BME280;74486;52.070;5.128;2024-02-04T05:19:16;102346.78;;;8.97;100.00
84308;BME280;74486;52.070;5.128;2024-02-04T05:21:41;102339.84;;;8.98;100.00
84308;BME280;74486;52.070;5.128;2024-02-04T05:24:07;102343.03;;;9.05;100.00
84308;BME280;74486;52.070;5.128;2024-02-04T05:26:32;102343.50;;;9.00;100.00
84308;BME280;74486;52.070;5.128;2024-02-04T05:28:58;102333.44;;;9.04;100.00
84308;BME280;74486;52.070;5.128;2024-02-04T05:31:23;102343.38;;;8.98;100.00
84308;BME280;74486;52.070;5.128;2024-02-04T05:33:51;102344.66;;;9.03;100.00
84308;BME280;74486;52.070;5.128;2024-02-04T05:36:17;102342.16;;;9.05;100.00
84308;BME280;74486;52.070;5.128;2024-02-04T05:38:44;102328.16;;;8.93;100.00
84308;BME280;74486;52.070;5.128;2024-02-04T05:41:10;102317.06;;;8.95;100.00
84308;BME280;74486;52.070;5.128;2024-02-04T05:43:35;102321.25;;;8.93;100.00
84308;BME280;74486;52.070;5.128;2024-02-04T05:46:01;102327.38;;;8.94;100.00
84308;BME280;74486;52.070;5.128;2024-02-04T05:48:26;102327.50;;;8.95;100.00
84308;BME280;74486;52.070;5.128;2024-02-04T05:50:53;102334.09;;;9.02;100.00
84308;BME280;74486;52.070;5.128;2024-02-04T05:53:18;102325.91;;;8.97;100.00
84308;BME280;74486;52.070;5.128;2024-02-04T05:55:44;102326.59;;;9.06;100.00
84308;BME280;74486;52.070;5.128;2024-02-04T05:58:09;102325.94;;;9.09;100.00
84308;BME280;74486;52.070;5.128;2024-02-04T06:00:35;102318.78;;;9.06;100.00
84308;BME280;74486;52.070;5.128;2024-02-04T06:03:00;102312.22;;;9.11;100.00
84308;BME280;74486;52.070;5.128;2024-02-04T06:05:26;102299.97;;;9.10;100.00
84308;BME280;74486;52.070;5.128;2024-02-04T06:07:53;102297.34;;;9.10;100.00
84308;BME280;74486;52.070;5.128;2024-02-04T06:10:18;102297.34;;;9.10;100.00
84308;BME280;74486;52.070;5.128;2024-02-04T06:12:44;102297.34;;;9.10;100.00
84308;BME280;74486;52.070;5.128;2024-02-04T06:15:12;102288.41;;;9.07;100.00
84308;BME280;74486;52.070;5.128;2024-02-04T06:17:37;102292.03;;;9.09;100.00
84308;BME280;74486;52.070;5.128;2024-02-04T06:20:03;102295.78;;;9.12;100.00
84308;BME280;74486;52.070;5.128;2024-02-04T06:22:29;102281.94;;;9.13;100.00
84308;BME280;74486;52.070;5.128;2024-02-04T06:24:56;102292.25;;;9.12;100.00
84308;BME280;74486;52.070;5.128;2024-02-04T06:27:21;102289.31;;;9.07;100.00
84308;BME280;74486;52.070;5.128;2024-02-04T06:29:46;102295.09;;;9.15;100.00
84308;BME280;74486;52.070;5.128;2024-02-04T06:32:12;102291.03;;;9.19;100.00
84308;BME280;74486;52.070;5.128;2024-02-04T06:34:37;102284.00;;;9.18;100.00
84308;BME280;74486;52.070;5.128;2024-02-04T06:37:03;102281.50;;;9.19;100.00
84308;BME280;74486;52.070;5.128;2024-02-04T06:39:28;102284.66;;;9.15;100.00
84308;BME280;74486;52.070;5.128;2024-02-04T06:41:55;102285.81;;;9.19;100.00
84308;BME280;74486;52.070;5.128;2024-02-04T06:44:20;102275.94;;;9.14;100.00
84308;BME280;74486;52.070;5.128;2024-02-04T06:46:46;102293.41;;;9.15;100.00
84308;BME280;74486;52.070;5.128;2024-02-04T06:49:11;102285.81;;;9.19;100.00
84308;BME280;74486;52.070;5.128;2024-02-04T06:51:37;102291.38;;;9.23;100.00
84308;BME280;74486;52.070;5.128;2024-02-04T06:54:02;102290.47;;;9.23;100.00
84308;BME280;74486;52.070;5.128;2024-02-04T06:56:28;102280.94;;;9.23;100.00
84308;BME280;74486;52.070;5.128;2024-02-04T06:58:54;102282.19;;;9.28;100.00
84308;BME280;74486;52.070;5.128;2024-02-04T07:01:20;102280.25;;;9.26;100.00
84308;BME280;74486;52.070;5.128;2024-02-04T07:03:45;102283.00;;;9.27;100.00
84308;BME280;74486;52.070;5.128;2024-02-04T07:06:11;102286.06;;;9.33;100.00
84308;BME280;74486;52.070;5.128;2024-02-04T07:08:36;102281.19;;;9.38;100.00
84308;BME280;74486;52.070;5.128;2024-02-04T07:11:01;102277.78;;;9.39;100.00
84308;BME280;74486;52.070;5.128;2024-02-04T07:13:27;102286.41;;;9.38;100.00
84308;BME280;74486;52.070;5.128;2024-02-04T07:15:54;102277.78;;;9.39;100.00
84308;BME280;74486;52.070;5.128;2024-02-04T07:18:19;102283.44;;;9.45;100.00
84308;BME280;74486;52.070;5.128;2024-02-04T07:20:45;102278.91;;;9.54;100.00
84308;BME280;74486;52.070;5.128;2024-02-04T07:23:11;102264.84;;;9.52;100.00
84308;BME280;74486;52.070;5.128;2024-02-04T07:25:37;102271.06;;;9.54;100.00
84308;BME280;74486;52.070;5.128;2024-02-04T07:28:02;102281.75;;;9.57;100.00
84308;BME280;74486;52.070;5.128;2024-02-04T07:30:28;102269.72;;;9.59;100.00
84308;BME280;74486;52.070;5.128;2024-02-04T07:32:55;102281.06;;;9.59;100.00
84308;BME280;74486;52.070;5.128;2024-02-04T07:35:20;102283.91;;;9.63;100.00
84308;BME280;74486;52.070;5.128;2024-02-04T07:37:46;102279.38;;;9.60;100.00
84308;BME280;74486;52.070;5.128;2024-02-04T07:40:11;102273.47;;;9.63;100.00
84308;BME280;74486;52.070;5.128;2024-02-04T07:42:37;102270.88;;;9.63;100.00
84308;BME280;74486;52.070;5.128;2024-02-04T07:45:03;102280.75;;;9.67;100.00
84308;BME280;74486;52.070;5.128;2024-02-04T07:47:28;102278.69;;;9.63;100.00
84308;BME280;74486;52.070;5.128;2024-02-04T07:49:55;102294.56;;;9.66;100.00
84308;BME280;74486;52.070;5.128;2024-02-04T07:52:20;102291.84;;;9.64;100.00
84308;BME280;74486;52.070;5.128;2024-02-04T07:54:46;102286.63;;;9.64;100.00
84308;BME280;74486;52.070;5.128;2024-02-04T07:57:12;102291.06;;;9.65;100.00
84308;BME280;74486;52.070;5.128;2024-02-04T07:59:37;102285.28;;;9.57;100.00
84308;BME280;74486;52.070;5.128;2024-02-04T08:02:03;102285.38;;;9.59;100.00
84308;BME280;74486;52.070;5.128;2024-02-04T08:04:28;102285.94;;;9.55;100.00
84308;BME280;74486;52.070;5.128;2024-02-04T08:06:55;102279.81;;;9.54;100.00
84308;BME280;74486;52.070;5.128;2024-02-04T08:09:20;102271.66;;;9.50;100.00
84308;BME280;74486;52.070;5.128;2024-02-04T08:11:46;102273.91;;;9.45;100.00
84308;BME280;74486;52.070;5.128;2024-02-04T08:14:12;102266.09;;;9.45;100.00
84308;BME280;74486;52.070;5.128;2024-02-04T08:16:37;102275.97;;;9.38;100.00
84308;BME280;74486;52.070;5.128;2024-02-04T08:19:03;102278.66;;;9.39;100.00
84308;BME280;74486;52.070;5.128;2024-02-04T08:21:28;102271.41;;;9.35;100.00
84308;BME280;74486;52.070;5.128;2024-02-04T08:23:55;102262.22;;;9.40;100.00
84308;BME280;74486;52.070;5.128;2024-02-04T08:26:20;102264.19;;;9.43;100.00
84308;BME280;74486;52.070;5.128;2024-02-04T08:28:46;102259.75;;;9.42;100.00
84308;BME280;74486;52.070;5.128;2024-02-04T08:31:11;102265.19;;;9.45;100.00
84308;BME280;74486;52.070;5.128;2024-02-04T08:33:37;102264.38;;;9.46;100.00
84308;BME280;74486;52.070;5.128;2024-02-04T08:36:02;102267.78;;;9.56;100.00
84308;BME280;74486;52.070;5.128;2024-02-04T08:38:28;102264.28;;;9.56;100.00
84308;BME280;74486;52.070;5.128;2024-02-04T08:40:54;102270.16;;;9.65;100.00
84308;BME280;74486;52.070;5.128;2024-02-04T08:43:20;102255.63;;;9.69;100.00
84308;BME280;74486;52.070;5.128;2024-02-04T08:45:45;102254.50;;;9.65;100.00
84308;BME280;74486;52.070;5.128;2024-02-04T08:48:11;102262.09;;;9.74;100.00
84308;BME280;74486;52.070;5.128;2024-02-04T08:50:36;102261.06;;;9.83;100.00
84308;BME280;74486;52.070;5.128;2024-02-04T08:53:02;102261.97;;;9.84;100.00
84308;BME280;74486;52.070;5.128;2024-02-04T08:55:28;102256.88;;;9.85;100.00
84308;BME280;74486;52.070;5.128;2024-02-04T08:57:55;102253.34;;;9.85;100.00
84308;BME280;74486;52.070;5.128;2024-02-04T09:00:20;102258.56;;;9.85;100.00
84308;BME280;74486;52.070;5.128;2024-02-04T09:02:46;102246.75;;;9.90;100.00
84308;BME280;74486;52.070;5.128;2024-02-04T09:05:12;102245.06;;;9.90;100.00
84308;BME280;74486;52.070;5.128;2024-02-04T09:07:37;102243.44;;;9.92;100.00
84308;BME280;74486;52.070;5.128;2024-02-04T09:10:03;102244.78;;;9.99;100.00
84308;BME280;74486;52.070;5.128;2024-02-04T09:12:28;102249.03;;;9.97;100.00
84308;BME280;74486;52.070;5.128;2024-02-04T09:14:55;102251.38;;;10.06;100.00
84308;BME280;74486;52.070;5.128;2024-02-04T09:17:20;102240.69;;;10.02;100.00
84308;BME280;74486;52.070;5.128;2024-02-04T09:19:46;102247.84;;;10.05;100.00
84308;BME280;74486;52.070;5.128;2024-02-04T09:22:11;102251.59;;;10.09;100.00
84308;BME280;74486;52.070;5.128;2024-02-04T09:24:37;102254.19;;;10.09;100.00
84308;BME280;74486;52.070;5.128;2024-02-04T09:27:03;102255.22;;;10.11;100.00
84308;BME280;74486;52.070;5.128;2024-02-04T09:29:28;102253.41;;;10.10;100.00
84308;BME280;74486;52.070;5.128;2024-02-04T09:31:55;102257.13;;;10.13;100.00
84308;BME280;74486;52.070;5.128;2024-02-04T09:34:21;102247.84;;;10.17;100.00
84308;BME280;74486;52.070;5.128;2024-02-04T09:36:46;102253.31;;;10.20;100.00
84308;BME280;74486;52.070;5.128;2024-02-04T09:39:11;102259.53;;;10.22;100.00
84308;BME280;74486;52.070;5.128;2024-02-04T09:41:37;102251.81;;;10.23;100.00
84308;BME280;74486;52.070;5.128;2024-02-04T09:44:04;102252.84;;;10.25;100.00
84308;BME280;74486;52.070;5.128;2024-02-04T09:46:29;102259.66;;;10.23;100.00
84308;BME280;74486;52.070;5.128;2024-02-04T09:48:56;102268.72;;;10.28;100.00
84308;BME280;74486;52.070;5.128;2024-02-04T09:51:22;102248.84;;;10.30;100.00
84308;BME280;74486;52.070;5.128;2024-02-04T09:53:51;102250.06;;;10.35;100.00
84308;BME280;74486;52.070;5.128;2024-02-04T09:56:18;102252.69;;;10.35;100.00
84308;BME280;74486;52.070;5.128;2024-02-04T09:58:43;102246.63;;;10.36;100.00
84308;BME280;74486;52.070;5.128;2024-02-04T10:01:10;102251.31;;;10.40;100.00
84308;BME280;74486;52.070;5.128;2024-02-04T10:03:35;102251.31;;;10.40;100.00
84308;BME280;74486;52.070;5.128;2024-02-04T10:06:02;102256.72;;;10.43;100.00
84308;BME280;74486;52.070;5.128;2024-02-04T10:08:28;102255.72;;;10.41;100.00
84308;BME280;74486;52.070;5.128;2024-02-04T10:10:54;102254.56;;;10.50;100.00
84308;BME280;74486;52.070;5.128;2024-02-04T10:13:20;102248.50;;;10.51;100.00
84308;BME280;74486;52.070;5.128;2024-02-04T10:15:45;102247.03;;;10.54;100.00
84308;BME280;74486;52.070;5.128;2024-02-04T10:18:11;102249.84;;;10.57;100.00
84308;BME280;74486;52.070;5.128;2024-02-04T10:20:36;102249.72;;;10.56;100.00
84308;BME280;74486;52.070;5.128;2024-02-04T10:23:03;102251.88;;;10.61;100.00
84308;BME280;74486;52.070;5.128;2024-02-04T10:25:29;102248.91;;;10.68;100.00
84308;BME280;74486;52.070;5.128;2024-02-04T10:27:54;102250.00;;;10.72;100.00
84308;BME280;74486;52.070;5.128;2024-02-04T10:30:20;102254.16;;;10.81;100.00
84308;BME280;74486;52.070;5.128;2024-02-04T10:32:47;102251.28;;;10.65;100.00
84308;BME280;74486;52.070;5.128;2024-02-04T10:35:12;102247.06;;;10.67;100.00
84308;BME280;74486;52.070;5.128;2024-02-04T10:37:38;102257.22;;;10.63;100.00
84308;BME280;74486;52.070;5.128;2024-02-04T10:40:06;102269.38;;;10.62;100.00
84308;BME280;74486;52.070;5.128;2024-02-04T10:42:32;102270.75;;;10.57;100.00
84308;BME280;74486;52.070;5.128;2024-02-04T10:44:58;102265.69;;;10.47;100.00
84308;BME280;74486;52.070;5.128;2024-02-04T10:47:25;102272.41;;;10.43;100.00
84308;BME280;74486;52.070;5.128;2024-02-04T10:49:58;102273.03;;;10.28;100.00
84308;BME280;74486;52.070;5.128;2024-02-04T10:52:26;102272.59;;;10.22;100.00
84308;BME280;74486;52.070;5.128;2024-02-04T10:54:52;102272.94;;;10.15;100.00
84308;BME280;74486;52.070;5.128;2024-02-04T10:57:21;102267.06;;;10.06;100.00
84308;BME280;74486;52.070;5.128;2024-02-04T10:59:47;102267.72;;;10.03;100.00
84308;BME280;74486;52.070;5.128;2024-02-04T11:02:15;102268.31;;;9.99;100.00
84308;BME280;74486;52.070;5.128;2024-02-04T11:04:41;102269.69;;;9.94;100.00
84308;BME280;74486;52.070;5.128;2024-02-04T11:07:08;102274.22;;;9.96;100.00
84308;BME280;74486;52.070;5.128;2024-02-04T11:09:35;102269.81;;;9.95;100.00
84308;BME280;74486;52.070;5.128;2024-02-04T11:12:02;102259.56;;;9.98;100.00
84308;BME280;74486;52.070;5.128;2024-02-04T11:14:31;102262.28;;;10.00;100.00
84308;BME280;74486;52.070;5.128;2024-02-04T11:17:20;102258.66;;;9.98;100.00
84308;BME280;74486;52.070;5.128;2024-02-04T11:20:01;102251.97;;;10.01;100.00
84308;BME280;74486;52.070;5.128;2024-02-04T11:22:47;102240.59;;;10.01;100.00
84308;BME280;74486;52.070;5.128;2024-02-04T11:25:40;102252.75;;;10.00;100.00
84308;BME280;74486;52.070;5.128;2024-02-04T11:28:07;102241.72;;;10.04;100.00
84308;BME280;74486;52.070;5.128;2024-02-04T11:30:35;102254.00;;;10.06;100.00
84308;BME280;74486;52.070;5.128;2024-02-04T11:33:00;102243.06;;;10.11;100.00
84308;BME280;74486;52.070;5.128;2024-02-04T11:35:26;102236.69;;;10.08;100.00
84308;BME280;74486;52.070;5.128;2024-02-04T11:37:53;102225.69;;;10.12;100.00
84308;BME280;74486;52.070;5.128;2024-02-04T11:40:20;102227.47;;;10.13;100.00
84308;BME280;74486;52.070;5.128;2024-02-04T11:42:46;102213.63;;;10.14;100.00
84308;BME280;74486;52.070;5.128;2024-02-04T11:45:13;102213.63;;;10.14;100.00
84308;BME280;74486;52.070;5.128;2024-02-04T11:47:40;102216.84;;;10.21;100.00
84308;BME280;74486;52.070;5.128;2024-02-04T11:50:07;102212.59;;;10.23;100.00
84308;BME280;74486;52.070;5.128;2024-02-04T11:52:32;102218.16;;;10.28;100.00
84308;BME280;74486;52.070;5.128;2024-02-04T11:54:59;102208.59;;;10.28;100.00
84308;BME280;74486;52.070;5.128;2024-02-04T11:57:25;102210.63;;;10.32;100.00
84308;BME280;74486;52.070;5.128;2024-02-04T11:59:52;102208.94;;;10.33;100.00
84308;BME280;74486;52.070;5.128;2024-02-04T12:02:19;102204.34;;;10.42;100.00
84308;BME280;74486;52.070;5.128;2024-02-04T12:04:47;102194.00;;;10.43;100.00
84308;BME280;74486;52.070;5.128;2024-02-04T12:07:13;102188.66;;;10.42;100.00
84308;BME280;74486;52.070;5.128;2024-02-04T12:09:39;102190.66;;;10.46;100.00
84308;BME280;74486;52.070;5.128;2024-02-04T12:12:06;102192.06;;;10.41;100.00
84308;BME280;74486;52.070;5.128;2024-02-04T12:14:32;102195.91;;;10.46;100.00
84308;BME280;74486;52.070;5.128;2024-02-04T12:17:07;102195.81;;;10.44;100.00
84308;BME280;74486;52.070;5.128;2024-02-04T12:19:32;102192.41;;;10.45;100.00
84308;BME280;74486;52.070;5.128;2024-02-04T12:21:59;102193.28;;;10.46;100.00
84308;BME280;74486;52.070;5.128;2024-02-04T12:24:25;102190.28;;;10.40;100.00
84308;BME280;74486;52.070;5.128;2024-02-04T12:26:50;102183.03;;;10.36;100.00
84308;BME280;74486;52.070;5.128;2024-02-04T12:29:16;102183.34;;;10.40;100.00
84308;BME280;74486;52.070;5.128;2024-02-04T12:31:41;102183.53;;;10.43;100.00
84308;BME280;74486;52.070;5.128;2024-02-04T12:34:08;102181.84;;;10.44;100.00
84308;BME280;74486;52.070;5.128;2024-02-04T12:36:33;102194.13;;;10.45;100.00
84308;BME280;74486;52.070;5.128;2024-02-04T12:39:01;102198.63;;;10.48;100.00
84308;BME280;74486;52.070;5.128;2024-02-04T12:41:27;102198.50;;;10.46;100.00